Wetterdaten: Woche 13.06.22 - 19.06.22 (KW24)
Datum Zeit Temp. I. Temp. A. Boden 5 cm Feuchte I. Feuchte A. Sonne Luftdruck Regen Wind
13.06.2022 00:00 22,4 C 17,6 C 15,6 C 64 % 77 % 19 % 1014 hPa 0,0 l/m 0,0 km/h (0 Bft)
13.06.2022 01:00 22,4 C 17,0 C 15,5 C 63 % 79 % 19 % 1013 hPa 0,0 l/m 0,0 km/h (0 Bft)
13.06.2022 02:00 22,4 C 16,8 C 15,4 C 63 % 80 % 19 % 1013 hPa 0,0 l/m 0,0 km/h (0 Bft)
13.06.2022 03:00 22,4 C 17,0 C 15,3 C 62 % 79 % 19 % 1013 hPa 0,0 l/m 3,0 km/h (1 Bft)
13.06.2022 04:00 22,4 C 16,7 C 15,3 C 62 % 81 % 19 % 1014 hPa 1,7 l/m 10,6 km/h (2 Bft)
13.06.2022 05:00 22,4 C 16,2 C 15,1 C 62 % 81 % 19 % 1015 hPa 2,7 l/m 4,9 km/h (1 Bft)
13.06.2022 06:00 22,4 C 16,0 C 14,8 C 63 % 81 % 19 % 1015 hPa 1,0 l/m 0,8 km/h (0 Bft)
13.06.2022 07:00 22,4 C 16,4 C 14,8 C 63 % 80 % 19 % 1015 hPa 0,0 l/m 3,8 km/h (1 Bft)
13.06.2022 08:00 22,4 C 16,9 C 14,7 C 64 % 80 % 19 % 1015 hPa 0,0 l/m 2,8 km/h (1 Bft)
13.06.2022 09:00 22,4 C 17,6 C 14,7 C 64 % 80 % 19 % 1014 hPa 0,0 l/m 4,8 km/h (1 Bft)
13.06.2022 10:00 22,4 C 18,6 C 14,9 C 65 % 80 % 19 % 1014 hPa 0,0 l/m 8,5 km/h (2 Bft)
13.06.2022 11:00 22,4 C 19,6 C 15,2 C 65 % 78 % 19 % 1014 hPa 0,0 l/m 14,1 km/h (3 Bft)
13.06.2022 12:00 22,6 C 20,9 C 15,2 C 65 % 74 % 19 % 1014 hPa 0,0 l/m 12,9 km/h (3 Bft)
13.06.2022 13:00 22,7 C 22,3 C 15,4 C 62 % 62 % 19 % 1014 hPa 0,0 l/m 11,8 km/h (2 Bft)
13.06.2022 14:00 22,8 C 22,6 C 15,5 C 59 % 58 % 19 % 1014 hPa 0,0 l/m 13,7 km/h (3 Bft)
13.06.2022 15:00 22,8 C 22,9 C 16,0 C 57 % 53 % 19 % 1014 hPa 0,0 l/m 18,4 km/h (3 Bft)
13.06.2022 16:00 22,8 C 22,7 C 15,8 C 58 % 50 % 19 % 1015 hPa 0,0 l/m 16,7 km/h (3 Bft)
13.06.2022 17:00 22,9 C 22,4 C 15,7 C 57 % 47 % 19 % 1015 hPa 0,0 l/m 14,2 km/h (3 Bft)
13.06.2022 18:00 23,1 C 22,0 C 15,6 C 53 % 45 % 19 % 1015 hPa 0,0 l/m 12,8 km/h (3 Bft)
13.06.2022 19:00 22,9 C 21,0 C 15,6 C 47 % 44 % 19 % 1016 hPa 0,0 l/m 10,6 km/h (2 Bft)
13.06.2022 20:00 22,6 C 19,3 C 15,5 C 46 % 49 % 19 % 1016 hPa 0,0 l/m 5,3 km/h (1 Bft)
13.06.2022 21:00 21,9 C 17,5 C 15,2 C 47 % 56 % 19 % 1017 hPa 0,0 l/m 2,5 km/h (1 Bft)
13.06.2022 22:00 21,6 C 15,9 C 14,9 C 49 % 64 % 19 % 1017 hPa 0,0 l/m 2,9 km/h (1 Bft)
13.06.2022 23:00 21,4 C 15,4 C 14,8 C 50 % 67 % 19 % 1018 hPa 0,0 l/m 1,3 km/h (1 Bft)
14.06.2022 00:00 21,0 C 14,6 C 14,5 C 52 % 71 % 19 % 1018 hPa 0,0 l/m 0,0 km/h (0 Bft)
14.06.2022 01:00 20,6 C 13,6 C 14,3 C 54 % 75 % 19 % 1018 hPa 0,0 l/m 0,1 km/h (0 Bft)
14.06.2022 02:00 20,2 C 12,9 C 14,0 C 56 % 79 % 19 % 1018 hPa 0,0 l/m 0,2 km/h (0 Bft)
14.06.2022 03:00 19,7 C 12,1 C 13,5 C 56 % 80 % 19 % 1018 hPa 0,0 l/m 0,0 km/h (0 Bft)
14.06.2022 04:00 19,3 C 11,4 C 13,2 C 56 % 81 % 19 % 1018 hPa 0,0 l/m 0,0 km/h (0 Bft)
14.06.2022 05:00 19,3 C 10,8 C 12,9 C 56 % 82 % 19 % 1018 hPa 0,0 l/m 0,0 km/h (0 Bft)
14.06.2022 06:00 20,1 C 12,4 C 13,1 C 56 % 80 % 19 % 1018 hPa 0,0 l/m 0,0 km/h (0 Bft)
14.06.2022 07:00 19,4 C 14,6 C 13,4 C 57 % 76 % 19 % 1019 hPa 0,0 l/m 2,2 km/h (1 Bft)
14.06.2022 08:00 19,5 C 15,4 C 13,4 C 58 % 75 % 19 % 1019 hPa 0,0 l/m 3,9 km/h (1 Bft)
14.06.2022 09:00 20,2 C 17,2 C 13,5 C 57 % 71 % 19 % 1019 hPa 0,0 l/m 4,1 km/h (1 Bft)
14.06.2022 10:00 20,4 C 18,8 C 13,6 C 57 % 64 % 19 % 1019 hPa 0,0 l/m 5,1 km/h (1 Bft)
14.06.2022 11:00 20,6 C 20,3 C 13,6 C 57 % 53 % 19 % 1018 hPa 0,0 l/m 4,9 km/h (1 Bft)
14.06.2022 12:00 20,8 C 21,2 C 13,8 C 57 % 47 % 19 % 1018 hPa 0,0 l/m 7,0 km/h (2 Bft)
14.06.2022 13:00 20,8 C 21,5 C 14,1 C 57 % 46 % 19 % 1018 hPa 0,0 l/m 6,0 km/h (2 Bft)
14.06.2022 14:00 20,9 C 22,0 C 14,4 C 57 % 46 % 19 % 1018 hPa 0,0 l/m 6,0 km/h (2 Bft)
14.06.2022 15:00 21,0 C 22,3 C 14,6 C 58 % 46 % 19 % 1017 hPa 0,0 l/m 5,6 km/h (1 Bft)
14.06.2022 16:00 21,2 C 22,6 C 14,6 C 58 % 45 % 19 % 1017 hPa 0,0 l/m 5,7 km/h (1 Bft)
14.06.2022 17:00 21,3 C 22,7 C 14,9 C 59 % 44 % 19 % 1016 hPa 0,0 l/m 3,8 km/h (1 Bft)
14.06.2022 18:00 21,3 C 22,5 C 15,1 C 60 % 43 % 19 % 1016 hPa 0,0 l/m 2,2 km/h (1 Bft)
14.06.2022 19:00 21,4 C 22,0 C 15,2 C 60 % 44 % 19 % 1016 hPa 0,0 l/m 1,6 km/h (1 Bft)
14.06.2022 20:00 21,4 C 20,7 C 15,3 C 60 % 49 % 19 % 1016 hPa 0,0 l/m 0,0 km/h (0 Bft)
14.06.2022 21:00 21,2 C 18,1 C 15,2 C 59 % 60 % 19 % 1016 hPa 0,0 l/m 0,0 km/h (0 Bft)
14.06.2022 22:00 20,9 C 16,0 C 14,9 C 57 % 67 % 19 % 1016 hPa 0,0 l/m 0,0 km/h (0 Bft)
14.06.2022 23:00 20,5 C 14,7 C 14,5 C 57 % 72 % 19 % 1016 hPa 0,0 l/m 0,0 km/h (0 Bft)
15.06.2022 00:00 20,1 C 13,6 C 14,3 C 57 % 75 % 19 % 1016 hPa 0,0 l/m 0,0 km/h (0 Bft)
15.06.2022 01:00 19,8 C 12,9 C 14,0 C 57 % 77 % 19 % 1016 hPa 0,0 l/m 0,0 km/h (0 Bft)
15.06.2022 02:00 19,4 C 12,0 C 13,6 C 57 % 79 % 19 % 1016 hPa 0,0 l/m 0,0 km/h (0 Bft)
15.06.2022 03:00 19,1 C 11,4 C 13,3 C 56 % 80 % 19 % 1016 hPa 0,0 l/m 0,0 km/h (0 Bft)
15.06.2022 04:00 18,8 C 11,0 C 13,1 C 56 % 81 % 19 % 1016 hPa 0,0 l/m 0,0 km/h (0 Bft)
15.06.2022 05:00 18,6 C 10,7 C 12,9 C 56 % 82 % 19 % 1016 hPa 0,0 l/m 0,0 km/h (0 Bft)
15.06.2022 06:00 18,5 C 13,0 C 13,2 C 58 % 80 % 19 % 1016 hPa 0,0 l/m 0,0 km/h (0 Bft)
15.06.2022 07:00 18,6 C 15,9 C 13,4 C 60 % 75 % 19 % 1016 hPa 0,0 l/m 0,0 km/h (0 Bft)
15.06.2022 08:00 19,1 C 18,0 C 13,4 C 60 % 69 % 19 % 1016 hPa 0,0 l/m 10,1 km/h (2 Bft)
15.06.2022 09:00 19,4 C 19,7 C 13,5 C 60 % 65 % 19 % 1016 hPa 0,0 l/m 10,5 km/h (2 Bft)
15.06.2022 10:00 19,6 C 21,7 C 13,6 C 59 % 60 % 19 % 1016 hPa 0,0 l/m 9,5 km/h (2 Bft)
15.06.2022 11:00 19,7 C 23,0 C 13,8 C 60 % 53 % 19 % 1015 hPa 0,0 l/m 17,6 km/h (3 Bft)
15.06.2022 12:00 19,8 C 24,3 C 13,8 C 60 % 49 % 19 % 1015 hPa 0,0 l/m 13,9 km/h (3 Bft)
15.06.2022 13:00 19,8 C 25,4 C 14,1 C 60 % 43 % 19 % 1015 hPa 0,0 l/m 15,5 km/h (3 Bft)
15.06.2022 14:00 20,0 C 26,1 C 14,4 C 60 % 40 % 19 % 1014 hPa 0,0 l/m 13,7 km/h (3 Bft)
15.06.2022 15:00 20,1 C 26,7 C 14,7 C 60 % 34 % 19 % 1014 hPa 0,0 l/m 13,2 km/h (3 Bft)
15.06.2022 16:00 20,2 C 27,1 C 15,0 C 60 % 33 % 19 % 1013 hPa 0,0 l/m 10,3 km/h (2 Bft)
15.06.2022 17:00 20,4 C 27,3 C 15,3 C 60 % 30 % 19 % 1013 hPa 0,0 l/m 8,2 km/h (2 Bft)
15.06.2022 18:00 20,5 C 26,9 C 15,5 C 60 % 35 % 19 % 1013 hPa 0,0 l/m 6,5 km/h (2 Bft)
15.06.2022 19:00 20,4 C 25,7 C 15,8 C 60 % 38 % 19 % 1013 hPa 0,0 l/m 3,8 km/h (1 Bft)
15.06.2022 20:00 20,4 C 23,6 C 16,1 C 60 % 46 % 19 % 1013 hPa 0,0 l/m 0,1 km/h (0 Bft)
15.06.2022 21:00 20,4 C 20,8 C 16,2 C 60 % 57 % 19 % 1013 hPa 0,0 l/m 0,0 km/h (0 Bft)
15.06.2022 22:00 20,4 C 18,6 C 16,0 C 60 % 64 % 19 % 1014 hPa 0,0 l/m 0,0 km/h (0 Bft)
15.06.2022 23:00 20,4 C 17,1 C 15,7 C 60 % 68 % 19 % 1014 hPa 0,0 l/m 0,0 km/h (0 Bft)
16.06.2022 00:00 20,5 C 16,0 C 15,6 C 60 % 71 % 19 % 1014 hPa 0,0 l/m 0,0 km/h (0 Bft)
16.06.2022 01:00 20,5 C 15,2 C 15,3 C 60 % 73 % 19 % 1014 hPa 0,0 l/m 0,3 km/h (0 Bft)
16.06.2022 02:00 20,6 C 14,5 C 15,1 C 60 % 76 % 19 % 1014 hPa 0,0 l/m 0,0 km/h (0 Bft)
16.06.2022 03:00 20,6 C 13,9 C 14,7 C 60 % 77 % 19 % 1014 hPa 0,0 l/m 0,0 km/h (0 Bft)
16.06.2022 04:00 20,6 C 13,2 C 14,5 C 60 % 80 % 19 % 1014 hPa 0,0 l/m 0,0 km/h (0 Bft)
16.06.2022 05:00 20,6 C 12,9 C 14,3 C 60 % 81 % 19 % 1014 hPa 0,0 l/m 0,0 km/h (0 Bft)
16.06.2022 06:00 20,6 C 14,6 C 14,5 C 60 % 80 % 19 % 1013 hPa 0,0 l/m 0,0 km/h (0 Bft)
16.06.2022 07:00 20,7 C 16,9 C 14,5 C 60 % 75 % 19 % 1014 hPa 0,0 l/m 0,3 km/h (0 Bft)
16.06.2022 08:00 20,7 C 19,4 C 14,6 C 60 % 72 % 19 % 1014 hPa 0,0 l/m 2,9 km/h (1 Bft)
16.06.2022 09:00 20,8 C 20,9 C 14,7 C 60 % 71 % 19 % 1014 hPa 0,0 l/m 4,1 km/h (1 Bft)
16.06.2022 10:00 20,8 C 22,6 C 14,8 C 60 % 66 % 19 % 1014 hPa 0,0 l/m 7,7 km/h (2 Bft)
16.06.2022 11:00 20,9 C 24,3 C 14,9 C 60 % 63 % 19 % 1013 hPa 0,0 l/m 5,5 km/h (1 Bft)
16.06.2022 12:00 21,0 C 25,7 C 15,7 C 60 % 59 % 19 % 1013 hPa 0,0 l/m 3,2 km/h (1 Bft)
16.06.2022 13:00 21,1 C 24,9 C 16,5 C 61 % 62 % 19 % 1014 hPa 0,0 l/m 6,9 km/h (2 Bft)
16.06.2022 14:00 21,1 C 23,4 C 16,5 C 62 % 66 % 19 % 1013 hPa 0,0 l/m 9,5 km/h (2 Bft)
16.06.2022 15:00 21,2 C 26,0 C 17,8 C 63 % 52 % 19 % 1013 hPa 0,0 l/m 14,8 km/h (3 Bft)
16.06.2022 16:00 21,2 C 25,9 C 17,6 C 63 % 52 % 19 % 1013 hPa 0,0 l/m 12,0 km/h (2 Bft)
16.06.2022 17:00 21,3 C 26,4 C 16,9 C 63 % 51 % 19 % 1013 hPa 0,0 l/m 8,1 km/h (2 Bft)
16.06.2022 18:00 21,4 C 26,4 C 17,1 C 63 % 51 % 19 % 1014 hPa 0,0 l/m 4,1 km/h (1 Bft)
16.06.2022 19:00 21,6 C 24,8 C 17,3 C 63 % 55 % 19 % 1014 hPa 0,0 l/m 0,7 km/h (0 Bft)
16.06.2022 20:00 21,6 C 22,7 C 17,5 C 65 % 68 % 19 % 1015 hPa 0,0 l/m 0,2 km/h (0 Bft)
16.06.2022 21:00 21,5 C 21,0 C 17,3 C 65 % 75 % 19 % 1016 hPa 0,0 l/m 0,4 km/h (0 Bft)
16.06.2022 22:00 21,5 C 19,7 C 17,1 C 67 % 79 % 19 % 1016 hPa 0,0 l/m 0,0 km/h (0 Bft)
16.06.2022 23:00 21,4 C 18,5 C 16,9 C 68 % 81 % 19 % 1017 hPa 0,0 l/m 0,0 km/h (0 Bft)
17.06.2022 00:00 21,4 C 17,8 C 16,7 C 67 % 81 % 19 % 1017 hPa 0,0 l/m 0,1 km/h (0 Bft)
17.06.2022 01:00 21,4 C 17,2 C 16,5 C 67 % 81 % 19 % 1017 hPa 0,0 l/m 0,4 km/h (0 Bft)
17.06.2022 02:00 20,9 C 16,7 C 16,3 C 66 % 81 % 19 % 1018 hPa 0,0 l/m 0,0 km/h (0 Bft)
17.06.2022 03:00 20,4 C 16,1 C 16,0 C 66 % 81 % 19 % 1018 hPa 0,0 l/m 0,0 km/h (0 Bft)
17.06.2022 04:00 20,0 C 15,3 C 15,7 C 66 % 82 % 19 % 1018 hPa 0,0 l/m 0,2 km/h (0 Bft)
17.06.2022 05:00 19,7 C 14,9 C 15,5 C 65 % 82 % 19 % 1018 hPa 0,0 l/m 0,0 km/h (0 Bft)
17.06.2022 06:00 19,6 C 14,9 C 15,4 C 65 % 82 % 19 % 1019 hPa 0,0 l/m 0,0 km/h (0 Bft)
17.06.2022 07:00 19,8 C 17,8 C 15,6 C 65 % 78 % 19 % 1019 hPa 0,0 l/m 0,2 km/h (0 Bft)
17.06.2022 08:00 20,2 C 19,5 C 15,6 C 65 % 71 % 19 % 1020 hPa 0,0 l/m 0,1 km/h (0 Bft)
17.06.2022 09:00 20,4 C 20,9 C 15,6 C 65 % 67 % 19 % 1020 hPa 0,0 l/m 1,8 km/h (1 Bft)
17.06.2022 10:00 20,6 C 22,0 C 15,7 C 64 % 64 % 19 % 1020 hPa 0,0 l/m 7,0 km/h (2 Bft)
17.06.2022 11:00 20,8 C 23,1 C 15,9 C 64 % 56 % 19 % 1020 hPa 0,0 l/m 8,1 km/h (2 Bft)
17.06.2022 12:00 20,9 C 24,0 C 16,0 C 64 % 48 % 19 % 1020 hPa 0,0 l/m 7,8 km/h (2 Bft)
17.06.2022 13:00 21,0 C 24,4 C 16,9 C 64 % 47 % 19 % 1020 hPa 0,0 l/m 9,6 km/h (2 Bft)
17.06.2022 14:00 21,0 C 24,8 C 16,8 C 64 % 44 % 19 % 1020 hPa 0,0 l/m 8,5 km/h (2 Bft)
17.06.2022 15:00 21,1 C 25,1 C 17,0 C 64 % 43 % 19 % 1020 hPa 0,0 l/m 9,1 km/h (2 Bft)
17.06.2022 16:00 21,1 C 25,4 C 17,2 C 64 % 43 % 19 % 1019 hPa 0,0 l/m 8,0 km/h (2 Bft)
17.06.2022 17:00 21,3 C 25,7 C 17,5 C 64 % 40 % 19 % 1019 hPa 0,0 l/m 10,2 km/h (2 Bft)
17.06.2022 18:00 21,3 C 25,4 C 17,4 C 63 % 37 % 19 % 1019 hPa 0,0 l/m 8,8 km/h (2 Bft)
17.06.2022 19:00 21,3 C 24,2 C 17,5 C 63 % 44 % 19 % 1019 hPa 0,0 l/m 4,5 km/h (1 Bft)
17.06.2022 20:00 21,3 C 22,6 C 17,6 C 63 % 50 % 19 % 1020 hPa 0,0 l/m 1,6 km/h (1 Bft)
17.06.2022 21:00 21,3 C 20,6 C 17,4 C 63 % 58 % 19 % 1020 hPa 0,0 l/m 0,0 km/h (0 Bft)
17.06.2022 22:00 21,2 C 18,7 C 17,2 C 62 % 67 % 19 % 1020 hPa 0,0 l/m 0,0 km/h (0 Bft)
17.06.2022 23:00 21,0 C 17,4 C 16,9 C 63 % 72 % 19 % 1020 hPa 0,0 l/m 0,1 km/h (0 Bft)
18.06.2022 00:00 20,7 C 16,7 C 16,7 C 63 % 75 % 19 % 1020 hPa 0,0 l/m 0,0 km/h (0 Bft)
18.06.2022 01:00 20,4 C 16,0 C 16,4 C 63 % 77 % 19 % 1020 hPa 0,0 l/m 0,0 km/h (0 Bft)
18.06.2022 02:00 20,2 C 15,4 C 16,2 C 64 % 79 % 19 % 1020 hPa 0,0 l/m 0,0 km/h (0 Bft)
18.06.2022 03:00 19,9 C 14,9 C 15,8 C 64 % 81 % 19 % 1020 hPa 0,0 l/m 0,0 km/h (0 Bft)
18.06.2022 04:00 19,7 C 14,2 C 15,5 C 63 % 81 % 19 % 1020 hPa 0,0 l/m 0,9 km/h (0 Bft)
18.06.2022 05:00 19,5 C 13,8 C 15,4 C 63 % 82 % 19 % 1020 hPa 0,0 l/m 2,2 km/h (1 Bft)
18.06.2022 06:00 19,4 C 14,8 C 15,3 C 63 % 81 % 19 % 1020 hPa 0,0 l/m 1,8 km/h (1 Bft)
18.06.2022 07:00 19,5 C 17,3 C 15,5 C 64 % 77 % 19 % 1020 hPa 0,0 l/m 0,0 km/h (0 Bft)
18.06.2022 08:00 19,9 C 19,0 C 15,6 C 64 % 73 % 19 % 1020 hPa 0,0 l/m 0,1 km/h (0 Bft)
18.06.2022 09:00 20,2 C 20,9 C 15,6 C 64 % 65 % 19 % 1020 hPa 0,0 l/m 4,1 km/h (1 Bft)
18.06.2022 10:00 20,3 C 22,6 C 15,7 C 63 % 61 % 19 % 1019 hPa 0,0 l/m 14,7 km/h (3 Bft)
18.06.2022 11:00 20,5 C 24,3 C 15,8 C 64 % 57 % 19 % 1019 hPa 0,0 l/m 16,5 km/h (3 Bft)
18.06.2022 12:00 20,6 C 25,7 C 15,9 C 64 % 51 % 19 % 1018 hPa 0,0 l/m 5,7 km/h (1 Bft)
18.06.2022 13:00 20,7 C 26,9 C 16,4 C 64 % 44 % 19 % 1017 hPa 0,0 l/m 5,7 km/h (1 Bft)
18.06.2022 14:00 20,7 C 27,8 C 16,7 C 64 % 40 % 19 % 1017 hPa 0,0 l/m 5,7 km/h (1 Bft)
18.06.2022 15:00 20,8 C 28,4 C 16,8 C 64 % 40 % 19 % 1016 hPa 0,0 l/m 5,7 km/h (1 Bft)
18.06.2022 16:00 20,9 C 28,8 C 17,4 C 64 % 39 % 19 % 1015 hPa 0,0 l/m 5,7 km/h (1 Bft)
18.06.2022 17:00 21,0 C 29,0 C 17,2 C 64 % 42 % 19 % 1015 hPa 0,0 l/m 5,7 km/h (1 Bft)
18.06.2022 18:00 21,1 C 28,8 C 17,4 C 64 % 43 % 19 % 1014 hPa 0,0 l/m 5,7 km/h (1 Bft)
18.06.2022 19:00 21,1 C 27,9 C 17,7 C 64 % 45 % 19 % 1014 hPa 0,0 l/m 4,5 km/h (1 Bft)
18.06.2022 20:00 21,1 C 25,9 C 18,0 C 64 % 54 % 19 % 1013 hPa 0,0 l/m 4,5 km/h (1 Bft)
18.06.2022 21:00 21,1 C 23,7 C 18,1 C 64 % 64 % 19 % 1014 hPa 0,0 l/m 4,5 km/h (1 Bft)
18.06.2022 22:00 21,1 C 22,0 C 18,1 C 64 % 68 % 19 % 1014 hPa 0,0 l/m 4,5 km/h (1 Bft)
18.06.2022 23:00 21,1 C 20,4 C 17,9 C 64 % 73 % 19 % 1013 hPa 0,0 l/m 1,5 km/h (1 Bft)
19.06.2022 00:00 21,2 C 19,4 C 17,8 C 64 % 76 % 19 % 1013 hPa 0,0 l/m 0,0 km/h (0 Bft)
19.06.2022 01:00 21,2 C 18,7 C 17,6 C 64 % 77 % 19 % 1013 hPa 0,0 l/m 0,0 km/h (0 Bft)
19.06.2022 02:00 21,2 C 17,7 C 17,3 C 64 % 79 % 19 % 1013 hPa 0,0 l/m 0,0 km/h (0 Bft)
19.06.2022 03:00 21,2 C 16,9 C 17,0 C 64 % 80 % 19 % 1012 hPa 0,0 l/m 0,0 km/h (0 Bft)
19.06.2022 04:00 21,2 C 16,0 C 16,7 C 64 % 80 % 19 % 1011 hPa 0,0 l/m 0,0 km/h (0 Bft)
19.06.2022 05:00 21,2 C 15,8 C 16,5 C 64 % 81 % 19 % 1010 hPa 0,0 l/m 0,0 km/h (0 Bft)
19.06.2022 06:00 21,3 C 18,1 C 16,7 C 64 % 78 % 19 % 1010 hPa 0,0 l/m 3,3 km/h (1 Bft)
19.06.2022 07:00 21,3 C 20,6 C 16,7 C 64 % 71 % 19 % 1010 hPa 0,0 l/m 5,5 km/h (1 Bft)
19.06.2022 08:00 21,4 C 22,5 C 16,8 C 64 % 63 % 19 % 1009 hPa 0,0 l/m 7,0 km/h (2 Bft)
19.06.2022 09:00 21,4 C 24,5 C 16,7 C 64 % 59 % 19 % 1009 hPa 0,0 l/m 14,1 km/h (3 Bft)
19.06.2022 10:00 21,5 C 26,2 C 16,8 C 64 % 57 % 19 % 1009 hPa 0,0 l/m 12,7 km/h (3 Bft)
19.06.2022 11:00 21,7 C 27,5 C 17,1 C 64 % 55 % 19 % 1008 hPa 0,0 l/m 12,3 km/h (3 Bft)
19.06.2022 12:00 21,9 C 28,9 C 17,7 C 66 % 51 % 19 % 1008 hPa 0,0 l/m 8,8 km/h (2 Bft)
19.06.2022 13:00 21,9 C 30,4 C 18,2 C 66 % 49 % 19 % 1008 hPa 0,0 l/m 5,4 km/h (1 Bft)
19.06.2022 14:00 22,0 C 31,7 C 19,1 C 66 % 43 % 19 % 1007 hPa 0,0 l/m 7,0 km/h (2 Bft)
19.06.2022 15:00 22,1 C 32,4 C 19,0 C 67 % 42 % 19 % 1007 hPa 0,0 l/m 2,3 km/h (1 Bft)
19.06.2022 16:00 22,1 C 32,5 C 18,7 C 66 % 43 % 19 % 1007 hPa 0,0 l/m 8,4 km/h (2 Bft)
19.06.2022 17:00 22,2 C 32,6 C 18,9 C 66 % 42 % 19 % 1006 hPa 0,0 l/m 9,9 km/h (2 Bft)
19.06.2022 18:00 22,3 C 32,3 C 19,2 C 66 % 43 % 19 % 1006 hPa 0,0 l/m 9,9 km/h (2 Bft)
19.06.2022 19:00 22,3 C 31,5 C 19,4 C 65 % 45 % 19 % 1005 hPa 0,0 l/m 9,9 km/h (2 Bft)
19.06.2022 20:00 22,4 C 29,3 C 19,7 C 66 % 56 % 19 % 1006 hPa 0,0 l/m 9,9 km/h (2 Bft)
19.06.2022 21:00 22,4 C 26,8 C 19,9 C 66 % 65 % 19 % 1006 hPa 0,0 l/m 9,1 km/h (2 Bft)
19.06.2022 22:00 22,4 C 24,9 C 19,9 C 66 % 70 % 19 % 1006 hPa 0,0 l/m 0,0 km/h (0 Bft)
19.06.2022 23:00 22,5 C 23,7 C 19,8 C 67 % 73 % 19 % 1006 hPa 0,0 l/m 0,0 km/h (0 Bft)
Min-Datum _ 15.06.22 15.06.22 15.06.22 13.06.22 15.06.22 - 19.06.22 - 13.06.22
_ Min-Zeit 06:04 05:24 05:19 19:39 17:29 - 18:44 - 00:24
Minimum _ 18,4 C 10,4 C 12,7 C 45 % 28 % - 1005 hPa - 0,0 km/h (0 Bft)
Max-Datum _ 13.06.22 19.06.22 19.06.22 16.06.22 15.06.22 13.06.22 17.06.22 13.06.22 18.06.22
_ Max-Zeit 17:59 17:34 14:54 22:54 05:44 00:24 08:34 05:59 10:49
Maximum _ 23,2 C 32,7 C 20,3 C 68 % 83 % 19 % 1020 hPa 2,7 l/m 43,1 km/h
S-SO (6 Bft)
Durchschnitt _ 21,0 C 20,6 C 15,8 C 61 % 63 % #13:54 h 1015 hPa #5,5 l/m 4,6 km/h (1 Bft)